sensor_id;sensor_type;location;lat;lon;timestamp;pressure;altitude;pressure_sealevel;temperature;humidity
13836;BME280;6988;52.614;13.500;2023-01-26T00:03:37;54982.31;;;-143.77;88.74
13836;BME280;6988;52.614;13.500;2023-01-26T00:08:30;55006.94;;;-143.77;88.51
13836;BME280;6988;52.614;13.500;2023-01-26T00:13:22;54978.19;;;-143.77;89.09
13836;BME280;6988;52.614;13.500;2023-01-26T00:18:14;54961.78;;;-143.77;88.68
13836;BME280;6988;52.614;13.500;2023-01-26T00:23:08;55000.78;;;-143.77;88.88
13836;BME280;6988;52.614;13.500;2023-01-26T00:27:59;54972.03;;;-143.77;88.45
13836;BME280;6988;52.614;13.500;2023-01-26T00:32:52;55004.88;;;-143.77;89.06
13836;BME280;6988;52.614;13.500;2023-01-26T00:37:44;55008.97;;;-143.77;88.89
13836;BME280;6988;52.614;13.500;2023-01-26T00:42:40;54953.56;;;-143.77;89.41
13836;BME280;6988;52.614;13.500;2023-01-26T00:47:32;54955.63;;;-143.77;89.17
13836;BME280;6988;52.614;13.500;2023-01-26T00:52:24;54976.16;;;-143.77;89.28
13836;BME280;6988;52.614;13.500;2023-01-26T00:57:15;54943.31;;;-143.77;89.34
13836;BME280;6988;52.614;13.500;2023-01-26T01:02:09;54959.72;;;-143.77;88.60
13836;BME280;6988;52.614;13.500;2023-01-26T01:07:01;54982.31;;;-143.77;88.95
13836;BME280;6988;52.614;13.500;2023-01-26T01:11:53;54947.41;;;-143.77;88.78
13836;BME280;6988;52.614;13.500;2023-01-26T01:16:45;54947.41;;;-143.77;89.42
13836;BME280;6988;52.614;13.500;2023-01-26T01:21:38;54935.09;;;-143.77;89.21
13836;BME280;6988;52.614;13.500;2023-01-26T01:26:30;55002.81;;;-143.77;89.33
13836;BME280;6988;52.614;13.500;2023-01-26T01:31:23;54986.41;;;-143.77;89.20
13836;BME280;6988;52.614;13.500;2023-01-26T01:36:16;55004.88;;;-143.77;88.88
13836;BME280;6988;52.614;13.500;2023-01-26T01:41:09;54978.19;;;-143.77;88.48
13836;BME280;6988;52.614;13.500;2023-01-26T01:46:05;54976.16;;;-143.77;89.17
13836;BME280;6988;52.614;13.500;2023-01-26T01:51:02;54984.34;;;-143.77;89.14
13836;BME280;6988;52.614;13.500;2023-01-26T01:56:01;54953.56;;;-143.77;88.95
13836;BME280;6988;52.614;13.500;2023-01-26T02:00:56;54965.88;;;-143.77;88.75
13836;BME280;6988;52.614;13.500;2023-01-26T02:05:54;55000.78;;;-143.77;88.61
13836;BME280;6988;52.614;13.500;2023-01-26T02:10:54;54974.09;;;-143.77;88.96
13836;BME280;6988;52.614;13.500;2023-01-26T02:15:50;55008.97;;;-143.77;88.41
13836;BME280;6988;52.614;13.500;2023-01-26T02:20:47;54967.94;;;-143.77;88.28
13836;BME280;6988;52.614;13.500;2023-01-26T02:30:45;54986.41;;;-143.77;87.75
13836;BME280;6988;52.614;13.500;2023-01-26T02:35:37;54978.19;;;-143.77;87.49
13836;BME280;6988;52.614;13.500;2023-01-26T02:40:39;54972.03;;;-143.77;87.87
13836;BME280;6988;52.614;13.500;2023-01-26T02:45:34;54982.31;;;-143.77;87.99
13836;BME280;6988;52.614;13.500;2023-01-26T02:50:27;54982.31;;;-143.77;87.35
13836;BME280;6988;52.614;13.500;2023-01-26T02:55:19;55017.19;;;-143.77;87.49
13836;BME280;6988;52.614;13.500;2023-01-26T03:00:18;54978.19;;;-143.77;87.56
13836;BME280;6988;52.614;13.500;2023-01-26T03:05:13;54976.16;;;-143.77;87.58
13836;BME280;6988;52.614;13.500;2023-01-26T03:10:09;54957.69;;;-143.77;87.37
13836;BME280;6988;52.614;13.500;2023-01-26T03:15:01;54976.16;;;-143.77;87.86
13836;BME280;6988;52.614;13.500;2023-01-26T03:20:11;54992.56;;;-143.77;88.09
13836;BME280;6988;52.614;13.500;2023-01-26T03:25:23;55002.81;;;-143.77;87.88
13836;BME280;6988;52.614;13.500;2023-01-26T03:30:32;54957.69;;;-143.77;87.74
13836;BME280;6988;52.614;13.500;2023-01-26T03:35:25;54996.66;;;-143.77;87.97
13836;BME280;6988;52.614;13.500;2023-01-26T03:40:17;54955.63;;;-143.77;88.28
13836;BME280;6988;52.614;13.500;2023-01-26T03:45:37;54959.72;;;-143.77;88.12
13836;BME280;6988;52.614;13.500;2023-01-26T03:50:49;54955.63;;;-143.77;87.95
13836;BME280;6988;52.614;13.500;2023-01-26T03:55:58;54980.25;;;-143.77;87.67
13836;BME280;6988;52.614;13.500;2023-01-26T04:01:26;54963.84;;;-143.77;86.51
13836;BME280;6988;52.614;13.500;2023-01-26T04:06:20;54963.84;;;-143.77;86.95
13836;BME280;6988;52.614;13.500;2023-01-26T04:11:29;55004.88;;;-143.77;86.83
13836;BME280;6988;52.614;13.500;2023-01-26T04:16:21;54955.63;;;-143.77;86.95
13836;BME280;6988;52.614;13.500;2023-01-26T04:21:32;54939.22;;;-143.77;87.08
13836;BME280;6988;52.614;13.500;2023-01-26T04:26:32;54949.47;;;-143.77;87.55
13836;BME280;6988;52.614;13.500;2023-01-26T04:31:28;54986.41;;;-143.77;87.33
13836;BME280;6988;52.614;13.500;2023-01-26T04:36:20;54972.03;;;-143.77;87.54
13836;BME280;6988;52.614;13.500;2023-01-26T04:41:16;54972.03;;;-143.77;87.30
13836;BME280;6988;52.614;13.500;2023-01-26T04:46:11;54992.56;;;-143.77;87.51
13836;BME280;6988;52.614;13.500;2023-01-26T04:51:07;54972.03;;;-143.77;87.24
13836;BME280;6988;52.614;13.500;2023-01-26T04:56:00;55008.97;;;-143.77;87.38
13836;BME280;6988;52.614;13.500;2023-01-26T05:00:57;54978.19;;;-143.77;87.87
13836;BME280;6988;52.614;13.500;2023-01-26T05:05:51;54965.88;;;-143.77;86.88
13836;BME280;6988;52.614;13.500;2023-01-26T05:10:45;54967.94;;;-143.77;87.52
13836;BME280;6988;52.614;13.500;2023-01-26T05:15:43;54935.09;;;-143.77;87.54
13836;BME280;6988;52.614;13.500;2023-01-26T05:20:41;55004.88;;;-143.77;87.53
13836;BME280;6988;52.614;13.500;2023-01-26T05:25:39;54994.63;;;-143.77;87.16
13836;BME280;6988;52.614;13.500;2023-01-26T05:30:34;54980.25;;;-143.77;86.82
13836;BME280;6988;52.614;13.500;2023-01-26T05:35:27;54972.03;;;-143.77;86.60
13836;BME280;6988;52.614;13.500;2023-01-26T05:40:21;55008.97;;;-143.77;86.87
13836;BME280;6988;52.614;13.500;2023-01-26T05:45:15;54957.69;;;-143.77;86.93
13836;BME280;6988;52.614;13.500;2023-01-26T05:50:09;54990.50;;;-143.77;87.34
13836;BME280;6988;52.614;13.500;2023-01-26T05:55:05;54998.72;;;-143.77;87.12
13836;BME280;6988;52.614;13.500;2023-01-26T05:59:59;54992.56;;;-143.77;87.38
13836;BME280;6988;52.614;13.500;2023-01-26T06:04:51;54982.31;;;-143.77;86.70
13836;BME280;6988;52.614;13.500;2023-01-26T06:09:44;54935.09;;;-143.77;86.86
13836;BME280;6988;52.614;13.500;2023-01-26T06:15:02;54996.66;;;-143.77;87.21
13836;BME280;6988;52.614;13.500;2023-01-26T06:20:00;54943.31;;;-143.77;86.67
13836;BME280;6988;52.614;13.500;2023-01-26T06:24:55;54972.03;;;-143.77;86.69
13836;BME280;6988;52.614;13.500;2023-01-26T06:29:47;54961.78;;;-143.77;86.27
13836;BME280;6988;52.614;13.500;2023-01-26T06:34:40;54976.16;;;-143.77;86.53
13836;BME280;6988;52.614;13.500;2023-01-26T06:39:32;54992.56;;;-143.77;86.29
13836;BME280;6988;52.614;13.500;2023-01-26T06:44:25;54955.63;;;-143.77;86.98
13836;BME280;6988;52.614;13.500;2023-01-26T06:49:17;54963.84;;;-143.77;86.49
13836;BME280;6988;52.614;13.500;2023-01-26T06:54:12;54988.47;;;-143.77;86.88
13836;BME280;6988;52.614;13.500;2023-01-26T06:59:23;54988.47;;;-143.77;86.78
13836;BME280;6988;52.614;13.500;2023-01-26T07:04:33;54980.25;;;-143.77;86.92
13836;BME280;6988;52.614;13.500;2023-01-26T07:09:27;54974.09;;;-143.77;86.05
13836;BME280;6988;52.614;13.500;2023-01-26T07:14:19;55017.19;;;-143.77;86.48
13836;BME280;6988;52.614;13.500;2023-01-26T07:19:11;54967.94;;;-143.77;86.91
13836;BME280;6988;52.614;13.500;2023-01-26T07:24:04;54972.03;;;-143.77;86.69
13836;BME280;6988;52.614;13.500;2023-01-26T07:28:57;54992.56;;;-143.77;86.10
13836;BME280;6988;52.614;13.500;2023-01-26T07:33:49;54976.16;;;-143.77;86.27
13836;BME280;6988;52.614;13.500;2023-01-26T07:38:41;54955.63;;;-143.77;86.70
13836;BME280;6988;52.614;13.500;2023-01-26T07:43:34;54976.16;;;-143.77;86.44
13836;BME280;6988;52.614;13.500;2023-01-26T07:48:27;54972.03;;;-143.77;86.84
13836;BME280;6988;52.614;13.500;2023-01-26T07:53:20;54996.66;;;-143.77;86.42
13836;BME280;6988;52.614;13.500;2023-01-26T07:58:12;55000.78;;;-143.77;86.62
13836;BME280;6988;52.614;13.500;2023-01-26T08:03:05;54980.25;;;-143.77;86.38
13836;BME280;6988;52.614;13.500;2023-01-26T08:07:58;54988.47;;;-143.77;86.38
13836;BME280;6988;52.614;13.500;2023-01-26T08:12:50;54972.03;;;-143.77;86.43
13836;BME280;6988;52.614;13.500;2023-01-26T08:17:42;54947.41;;;-143.77;86.18
13836;BME280;6988;52.614;13.500;2023-01-26T08:22:34;54980.25;;;-143.77;86.10
13836;BME280;6988;52.614;13.500;2023-01-26T08:27:27;54984.34;;;-143.77;86.10
13836;BME280;6988;52.614;13.500;2023-01-26T08:32:19;54951.53;;;-143.77;85.99
13836;BME280;6988;52.614;13.500;2023-01-26T08:37:10;55000.78;;;-143.77;85.03
13836;BME280;6988;52.614;13.500;2023-01-26T08:42:03;54935.09;;;-143.77;84.72
13836;BME280;6988;52.614;13.500;2023-01-26T08:46:56;54959.72;;;-143.77;84.38
13836;BME280;6988;52.614;13.500;2023-01-26T08:51:47;54992.56;;;-143.77;84.44
13836;BME280;6988;52.614;13.500;2023-01-26T08:56:39;54965.88;;;-143.77;84.37
13836;BME280;6988;52.614;13.500;2023-01-26T09:01:31;54988.47;;;-143.77;84.12
13836;BME280;6988;52.614;13.500;2023-01-26T09:06:24;55013.09;;;-143.77;84.20
13836;BME280;6988;52.614;13.500;2023-01-26T09:11:17;54980.25;;;-143.77;84.32
13836;BME280;6988;52.614;13.500;2023-01-26T09:16:17;54982.31;;;-143.77;84.42
13836;BME280;6988;52.614;13.500;2023-01-26T09:21:09;54990.50;;;-143.77;84.42
13836;BME280;6988;52.614;13.500;2023-01-26T09:26:03;54984.34;;;-143.77;84.39
13836;BME280;6988;52.614;13.500;2023-01-26T09:30:55;54984.34;;;-143.77;84.50
13836;BME280;6988;52.614;13.500;2023-01-26T09:35:47;54974.09;;;-143.77;84.62
13836;BME280;6988;52.614;13.500;2023-01-26T09:40:47;54998.72;;;-143.77;84.74
13836;BME280;6988;52.614;13.500;2023-01-26T09:45:53;54961.78;;;-143.77;84.50
13836;BME280;6988;52.614;13.500;2023-01-26T09:50:56;54980.25;;;-143.77;84.97
13836;BME280;6988;52.614;13.500;2023-01-26T09:55:51;55021.28;;;-143.77;85.39
13836;BME280;6988;52.614;13.500;2023-01-26T10:00:47;54947.41;;;-143.77;84.79
13836;BME280;6988;52.614;13.500;2023-01-26T10:05:50;55037.72;;;-143.77;84.94
13836;BME280;6988;52.614;13.500;2023-01-26T10:11:16;54996.66;;;-143.77;85.10
13836;BME280;6988;52.614;13.500;2023-01-26T10:16:12;54965.88;;;-143.77;84.61
13836;BME280;6988;52.614;13.500;2023-01-26T10:21:08;54959.72;;;-143.77;84.70
13836;BME280;6988;52.614;13.500;2023-01-26T10:26:10;54982.31;;;-143.77;84.81
13836;BME280;6988;52.614;13.500;2023-01-26T10:31:07;54980.25;;;-143.77;84.97
13836;BME280;6988;52.614;13.500;2023-01-26T10:36:06;54994.63;;;-143.77;84.80
13836;BME280;6988;52.614;13.500;2023-01-26T10:40:59;54972.03;;;-143.77;85.19
13836;BME280;6988;52.614;13.500;2023-01-26T10:45:53;55008.97;;;-143.77;85.01
13836;BME280;6988;52.614;13.500;2023-01-26T10:50:46;54963.84;;;-143.77;84.49
13836;BME280;6988;52.614;13.500;2023-01-26T10:55:40;54961.78;;;-143.77;84.17
13836;BME280;6988;52.614;13.500;2023-01-26T11:00:33;54982.31;;;-143.77;84.67
13836;BME280;6988;52.614;13.500;2023-01-26T11:05:26;54992.56;;;-143.77;84.39
13836;BME280;6988;52.614;13.500;2023-01-26T11:10:30;54967.94;;;-143.77;85.15
13836;BME280;6988;52.614;13.500;2023-01-26T11:15:26;54943.31;;;-143.77;84.62
13836;BME280;6988;52.614;13.500;2023-01-26T11:20:39;54972.03;;;-143.77;84.82
13836;BME280;6988;52.614;13.500;2023-01-26T11:25:45;54974.09;;;-143.77;84.24
13836;BME280;6988;52.614;13.500;2023-01-26T11:31:00;54976.16;;;-143.77;84.19
13836;BME280;6988;52.614;13.500;2023-01-26T11:36:02;54967.94;;;-143.77;83.26
13836;BME280;6988;52.614;13.500;2023-01-26T11:41:19;54935.09;;;-143.77;83.43
13836;BME280;6988;52.614;13.500;2023-01-26T11:46:46;54953.56;;;-143.77;83.26
13836;BME280;6988;52.614;13.500;2023-01-26T11:51:56;54986.41;;;-143.77;82.61
13836;BME280;6988;52.614;13.500;2023-01-26T11:57:00;54976.16;;;-143.77;82.54
13836;BME280;6988;52.614;13.500;2023-01-26T12:02:01;54970.00;;;-143.77;82.62
13836;BME280;6988;52.614;13.500;2023-01-26T12:07:00;54961.78;;;-143.77;81.70
13836;BME280;6988;52.614;13.500;2023-01-26T12:12:00;54939.22;;;-143.77;81.07
13836;BME280;6988;52.614;13.500;2023-01-26T12:17:26;54994.63;;;-143.77;81.16
13836;BME280;6988;52.614;13.500;2023-01-26T12:22:27;54984.34;;;-143.77;81.31
13836;BME280;6988;52.614;13.500;2023-01-26T12:27:27;54974.09;;;-143.77;80.76
13836;BME280;6988;52.614;13.500;2023-01-26T12:32:21;54961.78;;;-143.77;81.17
13836;BME280;6988;52.614;13.500;2023-01-26T12:37:48;54976.16;;;-143.77;80.66
13836;BME280;6988;52.614;13.500;2023-01-26T12:42:57;54980.25;;;-143.77;80.69
13836;BME280;6988;52.614;13.500;2023-01-26T12:48:02;54970.00;;;-143.77;81.39
13836;BME280;6988;52.614;13.500;2023-01-26T12:53:00;54976.16;;;-143.77;81.44
13836;BME280;6988;52.614;13.500;2023-01-26T12:57:59;54996.66;;;-143.77;81.36
13836;BME280;6988;52.614;13.500;2023-01-26T13:03:00;54980.25;;;-143.77;81.12
13836;BME280;6988;52.614;13.500;2023-01-26T13:07:54;55000.78;;;-143.77;81.35
13836;BME280;6988;52.614;13.500;2023-01-26T13:12:48;54986.41;;;-143.77;80.49
13836;BME280;6988;52.614;13.500;2023-01-26T13:18:01;55002.81;;;-143.77;80.96
13836;BME280;6988;52.614;13.500;2023-01-26T13:22:55;54976.16;;;-143.77;80.58
13836;BME280;6988;52.614;13.500;2023-01-26T13:27:56;54976.16;;;-143.77;81.05
13836;BME280;6988;52.614;13.500;2023-01-26T13:32:54;54976.16;;;-143.77;81.00
13836;BME280;6988;52.614;13.500;2023-01-26T13:38:01;54984.34;;;-143.77;80.71
13836;BME280;6988;52.614;13.500;2023-01-26T13:43:02;55004.88;;;-143.77;80.37
13836;BME280;6988;52.614;13.500;2023-01-26T13:47:57;55008.97;;;-143.77;80.87
13836;BME280;6988;52.614;13.500;2023-01-26T13:52:51;55019.25;;;-143.77;80.63
13836;BME280;6988;52.614;13.500;2023-01-26T13:57:44;55002.81;;;-143.77;81.04
13836;BME280;6988;52.614;13.500;2023-01-26T14:02:39;55004.88;;;-143.77;81.75
13836;BME280;6988;52.614;13.500;2023-01-26T14:07:34;54967.94;;;-143.77;81.45
13836;BME280;6988;52.614;13.500;2023-01-26T14:12:32;54976.16;;;-143.77;81.59
13836;BME280;6988;52.614;13.500;2023-01-26T14:17:30;54994.63;;;-143.77;81.40
13836;BME280;6988;52.614;13.500;2023-01-26T14:22:22;54967.94;;;-143.77;81.69
13836;BME280;6988;52.614;13.500;2023-01-26T14:27:31;55000.78;;;-143.77;81.57
13836;BME280;6988;52.614;13.500;2023-01-26T14:32:26;54980.25;;;-143.77;81.30
13836;BME280;6988;52.614;13.500;2023-01-26T14:37:19;54972.03;;;-143.77;81.38
13836;BME280;6988;52.614;13.500;2023-01-26T14:42:13;54988.47;;;-143.77;81.20
13836;BME280;6988;52.614;13.500;2023-01-26T14:47:14;54976.16;;;-143.77;81.08
13836;BME280;6988;52.614;13.500;2023-01-26T14:52:21;54980.25;;;-143.77;81.21
13836;BME280;6988;52.614;13.500;2023-01-26T14:57:20;55017.19;;;-143.77;81.26
13836;BME280;6988;52.614;13.500;2023-01-26T15:02:18;55008.97;;;-143.77;82.14
13836;BME280;6988;52.614;13.500;2023-01-26T15:07:41;54992.56;;;-143.77;81.64
13836;BME280;6988;52.614;13.500;2023-01-26T15:12:34;55004.88;;;-143.77;81.62
13836;BME280;6988;52.614;13.500;2023-01-26T15:17:29;54951.53;;;-143.77;82.23
13836;BME280;6988;52.614;13.500;2023-01-26T15:22:23;54986.41;;;-143.77;82.16
13836;BME280;6988;52.614;13.500;2023-01-26T15:27:17;54992.56;;;-143.77;82.22
13836;BME280;6988;52.614;13.500;2023-01-26T15:32:28;54984.34;;;-143.77;82.41
13836;BME280;6988;52.614;13.500;2023-01-26T15:37:28;54984.34;;;-143.77;82.91
13836;BME280;6988;52.614;13.500;2023-01-26T15:42:23;55017.19;;;-143.77;82.40
13836;BME280;6988;52.614;13.500;2023-01-26T15:47:17;55033.59;;;-143.77;83.04
13836;BME280;6988;52.614;13.500;2023-01-26T15:52:12;55025.41;;;-143.77;82.75
13836;BME280;6988;52.614;13.500;2023-01-26T15:57:04;55000.78;;;-143.77;82.82
13836;BME280;6988;52.614;13.500;2023-01-26T16:01:57;54984.34;;;-143.77;82.89
13836;BME280;6988;52.614;13.500;2023-01-26T16:06:49;54988.47;;;-143.77;82.58
13836;BME280;6988;52.614;13.500;2023-01-26T16:11:46;55019.25;;;-143.77;82.87
13836;BME280;6988;52.614;13.500;2023-01-26T16:16:38;54980.25;;;-143.77;82.37
13836;BME280;6988;52.614;13.500;2023-01-26T16:21:34;55023.34;;;-143.77;82.57
13836;BME280;6988;52.614;13.500;2023-01-26T16:26:28;55004.88;;;-143.77;82.04
13836;BME280;6988;52.614;13.500;2023-01-26T16:31:22;54976.16;;;-143.77;82.25
13836;BME280;6988;52.614;13.500;2023-01-26T16:36:17;54980.25;;;-143.77;82.28
13836;BME280;6988;52.614;13.500;2023-01-26T16:41:19;55002.81;;;-143.77;82.70
13836;BME280;6988;52.614;13.500;2023-01-26T16:46:12;54961.78;;;-143.77;82.86
13836;BME280;6988;52.614;13.500;2023-01-26T16:51:15;54982.31;;;-143.77;82.91
13836;BME280;6988;52.614;13.500;2023-01-26T16:56:10;55017.19;;;-143.77;82.88
13836;BME280;6988;52.614;13.500;2023-01-26T17:01:04;54980.25;;;-143.77;82.37
13836;BME280;6988;52.614;13.500;2023-01-26T17:05:57;54986.41;;;-143.77;82.88
13836;BME280;6988;52.614;13.500;2023-01-26T17:10:48;55015.13;;;-143.77;82.48
13836;BME280;6988;52.614;13.500;2023-01-26T17:15:40;54955.63;;;-143.77;82.50
13836;BME280;6988;52.614;13.500;2023-01-26T17:20:34;54990.50;;;-143.77;82.74
13836;BME280;6988;52.614;13.500;2023-01-26T17:25:25;54994.63;;;-143.77;82.65
13836;BME280;6988;52.614;13.500;2023-01-26T17:30:17;55004.88;;;-143.77;82.71
13836;BME280;6988;52.614;13.500;2023-01-26T17:35:09;54988.47;;;-143.77;83.08
13836;BME280;6988;52.614;13.500;2023-01-26T17:40:03;55023.34;;;-143.77;83.34
13836;BME280;6988;52.614;13.500;2023-01-26T17:44:54;54988.47;;;-143.77;83.52
13836;BME280;6988;52.614;13.500;2023-01-26T17:49:47;54980.25;;;-143.77;83.34
13836;BME280;6988;52.614;13.500;2023-01-26T17:54:39;55033.59;;;-143.77;83.56
13836;BME280;6988;52.614;13.500;2023-01-26T17:59:32;55004.88;;;-143.77;82.93
13836;BME280;6988;52.614;13.500;2023-01-26T18:04:24;55000.78;;;-143.77;82.84
13836;BME280;6988;52.614;13.500;2023-01-26T18:09:15;54976.16;;;-143.77;82.61
13836;BME280;6988;52.614;13.500;2023-01-26T18:14:08;54998.72;;;-143.77;82.72
13836;BME280;6988;52.614;13.500;2023-01-26T18:19:01;54970.00;;;-143.77;82.84
13836;BME280;6988;52.614;13.500;2023-01-26T18:23:56;54994.63;;;-143.77;82.93
13836;BME280;6988;52.614;13.500;2023-01-26T18:28:49;55025.41;;;-143.77;82.96
13836;BME280;6988;52.614;13.500;2023-01-26T18:33:41;54994.63;;;-143.77;83.63
13836;BME280;6988;52.614;13.500;2023-01-26T18:38:34;55000.78;;;-143.77;83.47
13836;BME280;6988;52.614;13.500;2023-01-26T18:43:27;54992.56;;;-143.77;83.67
13836;BME280;6988;52.614;13.500;2023-01-26T18:48:22;54980.25;;;-143.77;83.00
13836;BME280;6988;52.614;13.500;2023-01-26T18:53:13;54961.78;;;-143.77;83.04
13836;BME280;6988;52.614;13.500;2023-01-26T18:58:06;55008.97;;;-143.77;83.13
13836;BME280;6988;52.614;13.500;2023-01-26T19:02:58;54980.25;;;-143.77;83.37
13836;BME280;6988;52.614;13.500;2023-01-26T19:07:50;54976.16;;;-143.77;83.70
13836;BME280;6988;52.614;13.500;2023-01-26T19:12:41;54992.56;;;-143.77;83.65
13836;BME280;6988;52.614;13.500;2023-01-26T19:17:34;54976.16;;;-143.77;83.74
13836;BME280;6988;52.614;13.500;2023-01-26T19:22:26;54980.25;;;-143.77;84.08
13836;BME280;6988;52.614;13.500;2023-01-26T19:27:18;55002.81;;;-143.77;83.94
13836;BME280;6988;52.614;13.500;2023-01-26T19:32:10;54990.50;;;-143.77;84.28
13836;BME280;6988;52.614;13.500;2023-01-26T19:37:03;55008.97;;;-143.77;84.74
13836;BME280;6988;52.614;13.500;2023-01-26T19:41:55;55011.03;;;-143.77;84.69
13836;BME280;6988;52.614;13.500;2023-01-26T19:46:49;54978.19;;;-143.77;85.00
13836;BME280;6988;52.614;13.500;2023-01-26T19:51:42;55025.41;;;-143.77;84.96
13836;BME280;6988;52.614;13.500;2023-01-26T19:56:35;54986.41;;;-143.77;85.37
13836;BME280;6988;52.614;13.500;2023-01-26T20:01:29;55008.97;;;-143.77;85.52
13836;BME280;6988;52.614;13.500;2023-01-26T20:06:24;55008.97;;;-143.77;86.00
13836;BME280;6988;52.614;13.500;2023-01-26T20:11:17;54978.19;;;-143.77;86.22
13836;BME280;6988;52.614;13.500;2023-01-26T20:16:11;54996.66;;;-143.77;85.94
13836;BME280;6988;52.614;13.500;2023-01-26T20:21:03;54972.03;;;-143.77;85.97
13836;BME280;6988;52.614;13.500;2023-01-26T20:26:02;54970.00;;;-143.77;86.13
13836;BME280;6988;52.614;13.500;2023-01-26T20:30:53;54988.47;;;-143.77;86.28
13836;BME280;6988;52.614;13.500;2023-01-26T20:35:50;54978.19;;;-143.77;86.71
13836;BME280;6988;52.614;13.500;2023-01-26T20:40:42;54990.50;;;-143.77;86.42
13836;BME280;6988;52.614;13.500;2023-01-26T20:45:33;54982.31;;;-143.77;86.67
13836;BME280;6988;52.614;13.500;2023-01-26T20:50:25;54996.66;;;-143.77;86.62
13836;BME280;6988;52.614;13.500;2023-01-26T20:55:18;54963.84;;;-143.77;86.73
13836;BME280;6988;52.614;13.500;2023-01-26T21:00:11;55002.81;;;-143.77;86.51
13836;BME280;6988;52.614;13.500;2023-01-26T21:05:04;55008.97;;;-143.77;86.47
13836;BME280;6988;52.614;13.500;2023-01-26T21:09:56;54980.25;;;-143.77;86.75
13836;BME280;6988;52.614;13.500;2023-01-26T21:14:49;54986.41;;;-143.77;86.48
13836;BME280;6988;52.614;13.500;2023-01-26T21:19:41;54951.53;;;-143.77;87.04
13836;BME280;6988;52.614;13.500;2023-01-26T21:24:34;54990.50;;;-143.77;86.92
13836;BME280;6988;52.614;13.500;2023-01-26T21:29:26;54970.00;;;-143.77;87.62
13836;BME280;6988;52.614;13.500;2023-01-26T21:34:19;55017.19;;;-143.77;87.23
13836;BME280;6988;52.614;13.500;2023-01-26T21:39:13;54996.66;;;-143.77;87.01
13836;BME280;6988;52.614;13.500;2023-01-26T21:44:07;54974.09;;;-143.77;87.45
13836;BME280;6988;52.614;13.500;2023-01-26T21:48:59;54967.94;;;-143.77;87.19
13836;BME280;6988;52.614;13.500;2023-01-26T21:53:53;54990.50;;;-143.77;87.11
13836;BME280;6988;52.614;13.500;2023-01-26T21:58:46;54990.50;;;-143.77;87.47
13836;BME280;6988;52.614;13.500;2023-01-26T22:03:44;54986.41;;;-143.77;87.45
13836;BME280;6988;52.614;13.500;2023-01-26T22:08:35;54947.41;;;-143.77;87.99
13836;BME280;6988;52.614;13.500;2023-01-26T22:13:29;55035.66;;;-143.77;88.13
13836;BME280;6988;52.614;13.500;2023-01-26T22:18:20;54986.41;;;-143.77;87.61
13836;BME280;6988;52.614;13.500;2023-01-26T22:23:12;54976.16;;;-143.77;88.15
13836;BME280;6988;52.614;13.500;2023-01-26T22:28:04;54982.31;;;-143.77;88.04
13836;BME280;6988;52.614;13.500;2023-01-26T22:32:58;54996.66;;;-143.77;87.91
13836;BME280;6988;52.614;13.500;2023-01-26T22:37:50;54988.47;;;-143.77;87.66
13836;BME280;6988;52.614;13.500;2023-01-26T22:42:42;55004.88;;;-143.77;88.16
13836;BME280;6988;52.614;13.500;2023-01-26T23:04:58;55004.88;;;-143.77;88.24
13836;BME280;6988;52.614;13.500;2023-01-26T23:09:49;55015.13;;;-143.77;88.00
13836;BME280;6988;52.614;13.500;2023-01-26T23:14:41;55004.88;;;-143.77;88.56
13836;BME280;6988;52.614;13.500;2023-01-26T23:19:33;55004.88;;;-143.77;89.17
13836;BME280;6988;52.614;13.500;2023-01-26T23:24:26;54957.69;;;-143.77;89.32
13836;BME280;6988;52.614;13.500;2023-01-26T23:29:17;54961.78;;;-143.77;89.72
13836;BME280;6988;52.614;13.500;2023-01-26T23:34:09;55023.34;;;-143.77;89.39
13836;BME280;6988;52.614;13.500;2023-01-26T23:39:01;54996.66;;;-143.77;90.09
13836;BME280;6988;52.614;13.500;2023-01-26T23:43:54;55019.25;;;-143.77;90.00
13836;BME280;6988;52.614;13.500;2023-01-26T23:48:46;55002.81;;;-143.77;89.67
13836;BME280;6988;52.614;13.500;2023-01-26T23:53:38;54990.50;;;-143.77;90.25
13836;BME280;6988;52.614;13.500;2023-01-26T23:58:30;55002.81;;;-143.77;90.17
